sensor_id;sensor_type;location;lat;lon;timestamp;P1;durP1;ratioP1;P2;durP2;ratioP2
56680;SDS011;42558;52.388;13.390;2023-06-19T00:02:11;22.99;;;20.33;;
56680;SDS011;42558;52.388;13.390;2023-06-19T00:04:39;23.56;;;21.28;;
56680;SDS011;42558;52.388;13.390;2023-06-19T00:07:08;22.80;;;20.52;;
56680;SDS011;42558;52.388;13.390;2023-06-19T00:09:36;24.51;;;21.66;;
56680;SDS011;42558;52.388;13.390;2023-06-19T00:12:05;24.32;;;21.66;;
56680;SDS011;42558;52.388;13.390;2023-06-19T00:14:33;23.56;;;21.09;;
56680;SDS011;42558;52.388;13.390;2023-06-19T00:17:04;23.75;;;21.28;;
56680;SDS011;42558;52.388;13.390;2023-06-19T00:19:33;30.78;;;21.47;;
56680;SDS011;42558;52.388;13.390;2023-06-19T00:22:06;26.03;;;23.37;;
56680;SDS011;42558;52.388;13.390;2023-06-19T00:24:36;24.51;;;22.04;;
56680;SDS011;42558;52.388;13.390;2023-06-19T00:27:06;24.13;;;21.85;;
56680;SDS011;42558;52.388;13.390;2023-06-19T00:29:36;25.46;;;22.80;;
56680;SDS011;42558;52.388;13.390;2023-06-19T00:32:06;24.70;;;21.66;;
56680;SDS011;42558;52.388;13.390;2023-06-19T00:34:37;25.84;;;22.23;;
56680;SDS011;42558;52.388;13.390;2023-06-19T00:37:06;28.12;;;22.42;;
56680;SDS011;42558;52.388;13.390;2023-06-19T00:39:36;25.46;;;22.99;;
56680;SDS011;42558;52.388;13.390;2023-06-19T00:42:05;25.65;;;22.99;;
56680;SDS011;42558;52.388;13.390;2023-06-19T00:44:35;25.65;;;21.85;;
56680;SDS011;42558;52.388;13.390;2023-06-19T00:47:05;26.03;;;23.37;;
56680;SDS011;42558;52.388;13.390;2023-06-19T00:49:35;26.22;;;23.56;;
56680;SDS011;42558;52.388;13.390;2023-06-19T00:52:06;25.27;;;22.80;;
56680;SDS011;42558;52.388;13.390;2023-06-19T00:54:36;24.70;;;22.04;;
56680;SDS011;42558;52.388;13.390;2023-06-19T00:57:07;23.94;;;21.47;;
56680;SDS011;42558;52.388;13.390;2023-06-19T00:59:37;25.27;;;22.61;;
56680;SDS011;42558;52.388;13.390;2023-06-19T01:02:08;26.22;;;23.56;;
56680;SDS011;42558;52.388;13.390;2023-06-19T01:04:35;26.98;;;23.75;;
56680;SDS011;42558;52.388;13.390;2023-06-19T01:07:09;27.17;;;24.51;;
56680;SDS011;42558;52.388;13.390;2023-06-19T01:09:48;26.22;;;23.37;;
56680;SDS011;42558;52.388;13.390;2023-06-19T01:12:33;26.22;;;23.56;;
56680;SDS011;42558;52.388;13.390;2023-06-19T01:15:08;26.03;;;23.37;;
56680;SDS011;42558;52.388;13.390;2023-06-19T01:17:36;26.03;;;23.37;;
56680;SDS011;42558;52.388;13.390;2023-06-19T01:20:07;26.03;;;23.56;;
56680;SDS011;42558;52.388;13.390;2023-06-19T01:22:37;25.84;;;23.18;;
56680;SDS011;42558;52.388;13.390;2023-06-19T01:25:08;27.74;;;24.89;;
56680;SDS011;42558;52.388;13.390;2023-06-19T01:27:37;27.17;;;23.94;;
56680;SDS011;42558;52.388;13.390;2023-06-19T01:30:10;25.84;;;23.18;;
56680;SDS011;42558;52.388;13.390;2023-06-19T01:33:20;25.84;;;23.18;;
56680;SDS011;42558;52.388;13.390;2023-06-19T01:35:56;26.60;;;22.99;;
56680;SDS011;42558;52.388;13.390;2023-06-19T01:38:28;27.36;;;24.70;;
56680;SDS011;42558;52.388;13.390;2023-06-19T01:41:01;26.60;;;23.94;;
56680;SDS011;42558;52.388;13.390;2023-06-19T01:43:32;25.65;;;22.99;;
56680;SDS011;42558;52.388;13.390;2023-06-19T01:46:03;25.65;;;22.99;;
56680;SDS011;42558;52.388;13.390;2023-06-19T01:48:32;25.84;;;23.18;;
56680;SDS011;42558;52.388;13.390;2023-06-19T01:51:04;27.36;;;24.51;;
56680;SDS011;42558;52.388;13.390;2023-06-19T01:53:34;25.65;;;22.99;;
56680;SDS011;42558;52.388;13.390;2023-06-19T01:56:04;25.27;;;22.80;;
56680;SDS011;42558;52.388;13.390;2023-06-19T01:58:34;27.55;;;24.70;;
56680;SDS011;42558;52.388;13.390;2023-06-19T02:01:04;28.12;;;24.70;;
56680;SDS011;42558;52.388;13.390;2023-06-19T02:03:34;28.12;;;25.27;;
56680;SDS011;42558;52.388;13.390;2023-06-19T02:06:05;27.17;;;24.32;;
56680;SDS011;42558;52.388;13.390;2023-06-19T02:08:35;26.98;;;24.32;;
56680;SDS011;42558;52.388;13.390;2023-06-19T02:11:05;27.74;;;24.89;;
56680;SDS011;42558;52.388;13.390;2023-06-19T02:13:35;27.36;;;24.51;;
56680;SDS011;42558;52.388;13.390;2023-06-19T02:16:08;28.88;;;26.03;;
56680;SDS011;42558;52.388;13.390;2023-06-19T02:18:38;27.74;;;24.89;;
56680;SDS011;42558;52.388;13.390;2023-06-19T02:21:08;26.60;;;23.94;;
56680;SDS011;42558;52.388;13.390;2023-06-19T02:23:38;27.55;;;24.89;;
56680;SDS011;42558;52.388;13.390;2023-06-19T02:26:08;27.93;;;25.27;;
56680;SDS011;42558;52.388;13.390;2023-06-19T02:28:37;28.88;;;25.84;;
56680;SDS011;42558;52.388;13.390;2023-06-19T02:31:07;28.50;;;25.65;;
56680;SDS011;42558;52.388;13.390;2023-06-19T02:33:37;29.26;;;25.84;;
56680;SDS011;42558;52.388;13.390;2023-06-19T02:36:07;29.26;;;26.41;;
56680;SDS011;42558;52.388;13.390;2023-06-19T02:38:37;28.50;;;25.27;;
56680;SDS011;42558;52.388;13.390;2023-06-19T02:41:07;30.21;;;26.79;;
56680;SDS011;42558;52.388;13.390;2023-06-19T02:43:37;30.02;;;26.98;;
56680;SDS011;42558;52.388;13.390;2023-06-19T02:46:07;29.07;;;26.03;;
56680;SDS011;42558;52.388;13.390;2023-06-19T02:48:40;28.50;;;25.46;;
56680;SDS011;42558;52.388;13.390;2023-06-19T02:51:10;29.64;;;26.41;;
56680;SDS011;42558;52.388;13.390;2023-06-19T02:53:40;30.21;;;27.17;;
56680;SDS011;42558;52.388;13.390;2023-06-19T02:56:11;30.40;;;26.98;;
56680;SDS011;42558;52.388;13.390;2023-06-19T02:58:42;32.68;;;29.45;;
56680;SDS011;42558;52.388;13.390;2023-06-19T03:01:12;30.97;;;27.74;;
56680;SDS011;42558;52.388;13.390;2023-06-19T03:03:42;30.21;;;26.98;;
56680;SDS011;42558;52.388;13.390;2023-06-19T03:06:12;32.87;;;29.64;;
56680;SDS011;42558;52.388;13.390;2023-06-19T03:08:43;31.16;;;27.55;;
56680;SDS011;42558;52.388;13.390;2023-06-19T03:11:13;32.11;;;28.88;;
56680;SDS011;42558;52.388;13.390;2023-06-19T03:13:51;32.11;;;28.69;;
56680;SDS011;42558;52.388;13.390;2023-06-19T03:16:21;31.16;;;28.12;;
56680;SDS011;42558;52.388;13.390;2023-06-19T03:18:50;31.73;;;28.31;;
56680;SDS011;42558;52.388;13.390;2023-06-19T03:21:21;30.97;;;27.74;;
56680;SDS011;42558;52.388;13.390;2023-06-19T03:23:49;32.49;;;28.88;;
56680;SDS011;42558;52.388;13.390;2023-06-19T03:26:19;31.92;;;28.50;;
56680;SDS011;42558;52.388;13.390;2023-06-19T03:28:50;32.87;;;28.69;;
56680;SDS011;42558;52.388;13.390;2023-06-19T03:31:19;32.30;;;29.07;;
56680;SDS011;42558;52.388;13.390;2023-06-19T03:33:49;30.59;;;27.55;;
56680;SDS011;42558;52.388;13.390;2023-06-19T03:36:20;31.92;;;28.69;;
56680;SDS011;42558;52.388;13.390;2023-06-19T03:38:51;30.21;;;26.98;;
56680;SDS011;42558;52.388;13.390;2023-06-19T03:41:25;32.49;;;29.07;;
56680;SDS011;42558;52.388;13.390;2023-06-19T03:43:55;27.93;;;25.08;;
56680;SDS011;42558;52.388;13.390;2023-06-19T03:46:23;33.44;;;30.02;;
56680;SDS011;42558;52.388;13.390;2023-06-19T03:48:51;32.30;;;29.07;;
56680;SDS011;42558;52.388;13.390;2023-06-19T03:51:20;31.16;;;27.74;;
56680;SDS011;42558;52.388;13.390;2023-06-19T03:53:48;31.16;;;28.12;;
56680;SDS011;42558;52.388;13.390;2023-06-19T03:56:17;31.73;;;28.50;;
56680;SDS011;42558;52.388;13.390;2023-06-19T03:58:47;30.78;;;27.74;;
56680;SDS011;42558;52.388;13.390;2023-06-19T04:01:15;33.82;;;30.40;;
56680;SDS011;42558;52.388;13.390;2023-06-19T04:03:45;31.54;;;28.50;;
56680;SDS011;42558;52.388;13.390;2023-06-19T04:06:14;32.30;;;28.31;;
56680;SDS011;42558;52.388;13.390;2023-06-19T04:08:44;30.97;;;27.74;;
56680;SDS011;42558;52.388;13.390;2023-06-19T04:11:14;32.11;;;28.69;;
56680;SDS011;42558;52.388;13.390;2023-06-19T04:13:44;34.58;;;30.78;;
56680;SDS011;42558;52.388;13.390;2023-06-19T04:16:13;33.82;;;30.21;;
56680;SDS011;42558;52.388;13.390;2023-06-19T04:18:43;32.87;;;29.07;;
56680;SDS011;42558;52.388;13.390;2023-06-19T04:21:14;32.49;;;29.07;;
56680;SDS011;42558;52.388;13.390;2023-06-19T04:23:43;30.59;;;27.36;;
56680;SDS011;42558;52.388;13.390;2023-06-19T04:26:11;32.30;;;28.88;;
56680;SDS011;42558;52.388;13.390;2023-06-19T04:28:42;34.01;;;30.40;;
56680;SDS011;42558;52.388;13.390;2023-06-19T04:31:11;32.87;;;29.45;;
56680;SDS011;42558;52.388;13.390;2023-06-19T04:33:42;31.16;;;27.93;;
56680;SDS011;42558;52.388;13.390;2023-06-19T04:36:12;31.16;;;27.93;;
56680;SDS011;42558;52.388;13.390;2023-06-19T04:38:42;30.97;;;27.93;;
56680;SDS011;42558;52.388;13.390;2023-06-19T04:41:12;31.92;;;28.50;;
56680;SDS011;42558;52.388;13.390;2023-06-19T04:43:42;30.97;;;27.55;;
56680;SDS011;42558;52.388;13.390;2023-06-19T04:46:12;30.21;;;26.98;;
56680;SDS011;42558;52.388;13.390;2023-06-19T04:48:42;30.78;;;27.74;;
56680;SDS011;42558;52.388;13.390;2023-06-19T04:51:11;33.25;;;30.02;;
56680;SDS011;42558;52.388;13.390;2023-06-19T04:53:41;33.06;;;29.45;;
56680;SDS011;42558;52.388;13.390;2023-06-19T04:56:10;31.54;;;28.50;;
56680;SDS011;42558;52.388;13.390;2023-06-19T04:58:41;32.87;;;29.45;;
56680;SDS011;42558;52.388;13.390;2023-06-19T05:01:15;32.87;;;28.31;;
56680;SDS011;42558;52.388;13.390;2023-06-19T05:03:45;33.82;;;30.59;;
56680;SDS011;42558;52.388;13.390;2023-06-19T05:06:15;31.35;;;28.12;;
56680;SDS011;42558;52.388;13.390;2023-06-19T05:08:44;30.97;;;27.74;;
56680;SDS011;42558;52.388;13.390;2023-06-19T05:11:12;33.25;;;29.45;;
56680;SDS011;42558;52.388;13.390;2023-06-19T05:13:42;31.54;;;28.31;;
56680;SDS011;42558;52.388;13.390;2023-06-19T05:16:12;31.92;;;28.69;;
56680;SDS011;42558;52.388;13.390;2023-06-19T05:18:44;31.35;;;28.12;;
56680;SDS011;42558;52.388;13.390;2023-06-19T05:21:12;30.78;;;27.74;;
56680;SDS011;42558;52.388;13.390;2023-06-19T05:23:41;32.49;;;29.07;;
56680;SDS011;42558;52.388;13.390;2023-06-19T05:26:09;33.25;;;29.83;;
56680;SDS011;42558;52.388;13.390;2023-06-19T05:28:38;32.30;;;29.07;;
56680;SDS011;42558;52.388;13.390;2023-06-19T05:31:06;32.87;;;29.45;;
56680;SDS011;42558;52.388;13.390;2023-06-19T05:33:35;32.30;;;29.07;;
56680;SDS011;42558;52.388;13.390;2023-06-19T05:36:04;33.44;;;30.02;;
56680;SDS011;42558;52.388;13.390;2023-06-19T05:38:32;33.63;;;30.21;;
56680;SDS011;42558;52.388;13.390;2023-06-19T05:41:02;33.63;;;30.21;;
56680;SDS011;42558;52.388;13.390;2023-06-19T05:43:31;33.63;;;30.21;;
56680;SDS011;42558;52.388;13.390;2023-06-19T05:46:00;33.25;;;30.02;;
56680;SDS011;42558;52.388;13.390;2023-06-19T05:48:31;31.35;;;28.12;;
56680;SDS011;42558;52.388;13.390;2023-06-19T05:51:01;31.73;;;28.50;;
56680;SDS011;42558;52.388;13.390;2023-06-19T05:53:31;32.30;;;28.88;;
56680;SDS011;42558;52.388;13.390;2023-06-19T05:56:01;31.73;;;28.50;;
56680;SDS011;42558;52.388;13.390;2023-06-19T05:58:32;32.30;;;29.07;;
56680;SDS011;42558;52.388;13.390;2023-06-19T06:01:02;33.63;;;30.21;;
56680;SDS011;42558;52.388;13.390;2023-06-19T06:03:32;34.20;;;29.45;;
56680;SDS011;42558;52.388;13.390;2023-06-19T06:06:00;31.92;;;28.50;;
56680;SDS011;42558;52.388;13.390;2023-06-19T06:08:31;31.92;;;28.50;;
56680;SDS011;42558;52.388;13.390;2023-06-19T06:11:00;31.54;;;28.12;;
56680;SDS011;42558;52.388;13.390;2023-06-19T06:13:30;32.68;;;29.45;;
56680;SDS011;42558;52.388;13.390;2023-06-19T06:15:58;31.35;;;28.12;;
56680;SDS011;42558;52.388;13.390;2023-06-19T06:18:28;31.92;;;28.69;;
56680;SDS011;42558;52.388;13.390;2023-06-19T06:20:58;29.64;;;26.79;;
56680;SDS011;42558;52.388;13.390;2023-06-19T06:23:28;31.16;;;27.93;;
56680;SDS011;42558;52.388;13.390;2023-06-19T06:25:57;29.26;;;26.41;;
56680;SDS011;42558;52.388;13.390;2023-06-19T06:28:30;30.02;;;26.98;;
56680;SDS011;42558;52.388;13.390;2023-06-19T06:30:59;30.59;;;27.55;;
56680;SDS011;42558;52.388;13.390;2023-06-19T06:33:29;29.64;;;26.60;;
56680;SDS011;42558;52.388;13.390;2023-06-19T06:35:58;29.64;;;26.79;;
56680;SDS011;42558;52.388;13.390;2023-06-19T06:38:28;31.16;;;27.74;;
56680;SDS011;42558;52.388;13.390;2023-06-19T06:40:57;27.93;;;25.08;;
56680;SDS011;42558;52.388;13.390;2023-06-19T06:43:27;30.40;;;27.36;;
56680;SDS011;42558;52.388;13.390;2023-06-19T06:45:57;31.16;;;28.12;;
56680;SDS011;42558;52.388;13.390;2023-06-19T06:48:27;28.31;;;25.46;;
56680;SDS011;42558;52.388;13.390;2023-06-19T06:50:56;29.45;;;26.60;;
56680;SDS011;42558;52.388;13.390;2023-06-19T06:53:29;30.78;;;27.74;;
56680;SDS011;42558;52.388;13.390;2023-06-19T06:56:00;30.21;;;27.36;;
56680;SDS011;42558;52.388;13.390;2023-06-19T06:58:28;29.07;;;26.22;;
56680;SDS011;42558;52.388;13.390;2023-06-19T07:00:57;29.83;;;26.98;;
56680;SDS011;42558;52.388;13.390;2023-06-19T07:03:25;30.59;;;27.55;;
56680;SDS011;42558;52.388;13.390;2023-06-19T07:05:55;30.40;;;27.55;;
56680;SDS011;42558;52.388;13.390;2023-06-19T07:08:25;30.59;;;27.36;;
56680;SDS011;42558;52.388;13.390;2023-06-19T07:10:55;30.21;;;26.98;;
56680;SDS011;42558;52.388;13.390;2023-06-19T07:13:25;30.02;;;26.98;;
56680;SDS011;42558;52.388;13.390;2023-06-19T07:15:54;26.98;;;24.13;;
56680;SDS011;42558;52.388;13.390;2023-06-19T07:18:23;31.35;;;28.31;;
56680;SDS011;42558;52.388;13.390;2023-06-19T07:20:52;30.21;;;26.98;;
56680;SDS011;42558;52.388;13.390;2023-06-19T07:23:22;28.50;;;25.65;;
56680;SDS011;42558;52.388;13.390;2023-06-19T07:25:52;29.26;;;26.22;;
56680;SDS011;42558;52.388;13.390;2023-06-19T07:28:22;28.12;;;25.46;;
56680;SDS011;42558;52.388;13.390;2023-06-19T07:30:50;28.12;;;25.27;;
56680;SDS011;42558;52.388;13.390;2023-06-19T07:33:21;28.31;;;25.46;;
56680;SDS011;42558;52.388;13.390;2023-06-19T07:35:49;27.36;;;24.70;;
56680;SDS011;42558;52.388;13.390;2023-06-19T07:38:19;26.60;;;23.94;;
56680;SDS011;42558;52.388;13.390;2023-06-19T07:40:49;27.17;;;24.51;;
56680;SDS011;42558;52.388;13.390;2023-06-19T07:43:17;26.03;;;23.56;;
56680;SDS011;42558;52.388;13.390;2023-06-19T07:45:46;26.03;;;23.37;;
56680;SDS011;42558;52.388;13.390;2023-06-19T07:48:17;27.36;;;24.51;;
56680;SDS011;42558;52.388;13.390;2023-06-19T07:50:47;27.17;;;24.51;;
56680;SDS011;42558;52.388;13.390;2023-06-19T07:53:14;25.08;;;22.80;;
56680;SDS011;42558;52.388;13.390;2023-06-19T07:55:44;26.22;;;22.61;;
56680;SDS011;42558;52.388;13.390;2023-06-19T07:58:14;25.08;;;22.80;;
56680;SDS011;42558;52.388;13.390;2023-06-19T08:00:44;24.89;;;22.42;;
56680;SDS011;42558;52.388;13.390;2023-06-19T08:03:14;25.84;;;23.18;;
56680;SDS011;42558;52.388;13.390;2023-06-19T08:05:44;24.70;;;22.23;;
56680;SDS011;42558;52.388;13.390;2023-06-19T08:08:14;24.70;;;22.42;;
56680;SDS011;42558;52.388;13.390;2023-06-19T08:10:44;25.08;;;21.85;;
56680;SDS011;42558;52.388;13.390;2023-06-19T08:13:14;25.84;;;23.56;;
56680;SDS011;42558;52.388;13.390;2023-06-19T08:15:44;26.22;;;23.56;;
56680;SDS011;42558;52.388;13.390;2023-06-19T08:18:14;25.84;;;22.80;;
56680;SDS011;42558;52.388;13.390;2023-06-19T08:20:44;27.74;;;24.89;;
56680;SDS011;42558;52.388;13.390;2023-06-19T08:23:14;26.03;;;22.23;;
56680;SDS011;42558;52.388;13.390;2023-06-19T08:25:44;27.74;;;25.08;;
56680;SDS011;42558;52.388;13.390;2023-06-19T08:28:14;26.41;;;23.94;;
56680;SDS011;42558;52.388;13.390;2023-06-19T08:30:45;26.79;;;24.32;;
56680;SDS011;42558;52.388;13.390;2023-06-19T08:33:15;27.93;;;25.27;;
56680;SDS011;42558;52.388;13.390;2023-06-19T08:35:45;28.31;;;25.46;;
56680;SDS011;42558;52.388;13.390;2023-06-19T08:38:16;28.69;;;25.84;;
56680;SDS011;42558;52.388;13.390;2023-06-19T08:40:47;28.31;;;25.65;;
56680;SDS011;42558;52.388;13.390;2023-06-19T08:43:14;28.50;;;25.65;;
56680;SDS011;42558;52.388;13.390;2023-06-19T08:46:26;26.60;;;24.13;;
56680;SDS011;42558;52.388;13.390;2023-06-19T08:48:48;27.93;;;24.13;;
56680;SDS011;42558;52.388;13.390;2023-06-19T08:51:18;26.98;;;24.51;;
56680;SDS011;42558;52.388;13.390;2023-06-19T08:53:49;27.17;;;24.13;;
56680;SDS011;42558;52.388;13.390;2023-06-19T08:56:22;28.12;;;25.46;;
56680;SDS011;42558;52.388;13.390;2023-06-19T08:58:50;28.88;;;26.03;;
56680;SDS011;42558;52.388;13.390;2023-06-19T09:01:19;27.55;;;24.70;;
56680;SDS011;42558;52.388;13.390;2023-06-19T09:03:47;30.02;;;26.98;;
56680;SDS011;42558;52.388;13.390;2023-06-19T09:06:22;26.79;;;24.32;;
56680;SDS011;42558;52.388;13.390;2023-06-19T09:08:59;28.50;;;25.84;;
56680;SDS011;42558;52.388;13.390;2023-06-19T09:11:29;26.79;;;24.32;;
56680;SDS011;42558;52.388;13.390;2023-06-19T09:13:58;32.11;;;27.36;;
56680;SDS011;42558;52.388;13.390;2023-06-19T09:16:39;28.69;;;25.84;;
56680;SDS011;42558;52.388;13.390;2023-06-19T09:19:11;27.93;;;25.08;;
56680;SDS011;42558;52.388;13.390;2023-06-19T09:21:49;28.50;;;25.65;;
56680;SDS011;42558;52.388;13.390;2023-06-19T09:24:19;29.07;;;26.22;;
56680;SDS011;42558;52.388;13.390;2023-06-19T09:26:50;28.12;;;25.46;;
56680;SDS011;42558;52.388;13.390;2023-06-19T09:29:21;29.64;;;26.79;;
56680;SDS011;42558;52.388;13.390;2023-06-19T09:31:50;30.40;;;27.55;;
56680;SDS011;42558;52.388;13.390;2023-06-19T09:34:20;29.83;;;26.98;;
56680;SDS011;42558;52.388;13.390;2023-06-19T09:36:50;28.88;;;26.03;;
56680;SDS011;42558;52.388;13.390;2023-06-19T09:39:22;27.55;;;24.89;;
56680;SDS011;42558;52.388;13.390;2023-06-19T09:41:57;29.45;;;26.41;;
56680;SDS011;42558;52.388;13.390;2023-06-19T09:44:31;30.59;;;27.55;;
56680;SDS011;42558;52.388;13.390;2023-06-19T09:47:18;32.87;;;27.17;;
56680;SDS011;42558;52.388;13.390;2023-06-19T09:49:55;26.98;;;23.94;;
56680;SDS011;42558;52.388;13.390;2023-06-19T09:52:23;29.07;;;26.41;;
56680;SDS011;42558;52.388;13.390;2023-06-19T09:54:52;29.26;;;26.22;;
56680;SDS011;42558;52.388;13.390;2023-06-19T09:57:24;30.21;;;26.03;;
56680;SDS011;42558;52.388;13.390;2023-06-19T09:59:55;28.69;;;26.03;;
56680;SDS011;42558;52.388;13.390;2023-06-19T10:02:29;31.35;;;28.31;;
56680;SDS011;42558;52.388;13.390;2023-06-19T10:04:59;29.26;;;26.41;;
56680;SDS011;42558;52.388;13.390;2023-06-19T10:07:34;29.45;;;26.79;;
56680;SDS011;42558;52.388;13.390;2023-06-19T10:10:22;29.26;;;26.60;;
56680;SDS011;42558;52.388;13.390;2023-06-19T10:12:59;31.92;;;28.69;;
56680;SDS011;42558;52.388;13.390;2023-06-19T10:15:44;29.64;;;26.79;;
56680;SDS011;42558;52.388;13.390;2023-06-19T10:18:16;30.40;;;27.55;;
56680;SDS011;42558;52.388;13.390;2023-06-19T10:20:47;30.21;;;27.17;;
56680;SDS011;42558;52.388;13.390;2023-06-19T10:23:22;29.07;;;26.41;;
56680;SDS011;42558;52.388;13.390;2023-06-19T10:30:58;29.45;;;26.60;;
56680;SDS011;42558;52.388;13.390;2023-06-19T10:33:31;30.59;;;27.74;;
56680;SDS011;42558;52.388;13.390;2023-06-19T10:36:17;28.88;;;26.22;;
56680;SDS011;42558;52.388;13.390;2023-06-19T10:38:48;30.59;;;27.55;;
56680;SDS011;42558;52.388;13.390;2023-06-19T10:41:21;29.83;;;27.17;;
56680;SDS011;42558;52.388;13.390;2023-06-19T10:46:28;30.21;;;27.55;;
56680;SDS011;42558;52.388;13.390;2023-06-19T10:48:59;29.07;;;26.22;;
56680;SDS011;42558;52.388;13.390;2023-06-19T10:51:35;28.88;;;26.22;;
56680;SDS011;42558;52.388;13.390;2023-06-19T10:54:06;29.07;;;26.41;;
56680;SDS011;42558;52.388;13.390;2023-06-19T10:56:37;27.55;;;24.89;;
56680;SDS011;42558;52.388;13.390;2023-06-19T10:59:08;28.69;;;25.65;;
56680;SDS011;42558;52.388;13.390;2023-06-19T11:01:45;28.31;;;25.65;;
56680;SDS011;42558;52.388;13.390;2023-06-19T11:04:16;28.12;;;25.27;;
56680;SDS011;42558;52.388;13.390;2023-06-19T11:06:46;25.84;;;23.37;;
56680;SDS011;42558;52.388;13.390;2023-06-19T11:09:17;28.50;;;25.84;;
56680;SDS011;42558;52.388;13.390;2023-06-19T11:11:49;27.55;;;25.08;;
56680;SDS011;42558;52.388;13.390;2023-06-19T11:14:19;26.79;;;24.32;;
56680;SDS011;42558;52.388;13.390;2023-06-19T11:16:49;24.51;;;22.23;;
56680;SDS011;42558;52.388;13.390;2023-06-19T11:19:20;27.17;;;24.32;;
56680;SDS011;42558;52.388;13.390;2023-06-19T11:21:52;25.84;;;23.37;;
56680;SDS011;42558;52.388;13.390;2023-06-19T11:24:24;26.98;;;24.32;;
56680;SDS011;42558;52.388;13.390;2023-06-19T11:26:52;26.22;;;23.56;;
56680;SDS011;42558;52.388;13.390;2023-06-19T11:29:31;25.27;;;22.99;;
56680;SDS011;42558;52.388;13.390;2023-06-19T11:32:13;24.51;;;22.04;;
56680;SDS011;42558;52.388;13.390;2023-06-19T11:34:44;25.08;;;22.42;;
56680;SDS011;42558;52.388;13.390;2023-06-19T11:37:13;24.32;;;22.04;;
56680;SDS011;42558;52.388;13.390;2023-06-19T11:39:50;24.89;;;22.61;;
56680;SDS011;42558;52.388;13.390;2023-06-19T11:42:20;22.99;;;20.71;;
56680;SDS011;42558;52.388;13.390;2023-06-19T11:44:54;23.94;;;21.47;;
56680;SDS011;42558;52.388;13.390;2023-06-19T11:47:34;22.80;;;20.52;;
56680;SDS011;42558;52.388;13.390;2023-06-19T11:50:05;22.61;;;20.33;;
56680;SDS011;42558;52.388;13.390;2023-06-19T11:52:36;21.85;;;19.76;;
56680;SDS011;42558;52.388;13.390;2023-06-19T11:55:06;21.28;;;19.38;;
56680;SDS011;42558;52.388;13.390;2023-06-19T11:57:38;23.18;;;20.90;;
56680;SDS011;42558;52.388;13.390;2023-06-19T12:00:14;23.18;;;20.33;;
56680;SDS011;42558;52.388;13.390;2023-06-19T12:02:46;22.42;;;19.95;;
56680;SDS011;42558;52.388;13.390;2023-06-19T12:05:16;24.89;;;20.52;;
56680;SDS011;42558;52.388;13.390;2023-06-19T12:07:46;21.09;;;19.00;;
56680;SDS011;42558;52.388;13.390;2023-06-19T12:10:17;23.75;;;21.47;;
56680;SDS011;42558;52.388;13.390;2023-06-19T12:12:47;22.80;;;20.33;;
56680;SDS011;42558;52.388;13.390;2023-06-19T12:15:16;25.27;;;21.28;;
56680;SDS011;42558;52.388;13.390;2023-06-19T12:17:46;22.99;;;20.71;;
56680;SDS011;42558;52.388;13.390;2023-06-19T12:20:17;23.37;;;21.09;;
56680;SDS011;42558;52.388;13.390;2023-06-19T12:22:47;24.51;;;22.04;;
56680;SDS011;42558;52.388;13.390;2023-06-19T12:25:17;24.32;;;21.85;;
56680;SDS011;42558;52.388;13.390;2023-06-19T12:27:46;23.75;;;21.28;;
56680;SDS011;42558;52.388;13.390;2023-06-19T12:30:23;22.23;;;20.14;;
56680;SDS011;42558;52.388;13.390;2023-06-19T12:32:53;24.51;;;22.23;;
56680;SDS011;42558;52.388;13.390;2023-06-19T12:35:22;25.08;;;22.80;;
56680;SDS011;42558;52.388;13.390;2023-06-19T12:37:52;25.27;;;22.61;;
56680;SDS011;42558;52.388;13.390;2023-06-19T12:40:22;25.27;;;22.80;;
56680;SDS011;42558;52.388;13.390;2023-06-19T12:42:53;24.32;;;22.23;;
56680;SDS011;42558;52.388;13.390;2023-06-19T12:45:22;24.32;;;21.85;;
56680;SDS011;42558;52.388;13.390;2023-06-19T12:47:53;24.32;;;21.85;;
56680;SDS011;42558;52.388;13.390;2023-06-19T12:50:23;24.32;;;22.04;;
56680;SDS011;42558;52.388;13.390;2023-06-19T12:52:53;26.41;;;23.75;;
56680;SDS011;42558;52.388;13.390;2023-06-19T12:55:23;25.46;;;22.80;;
56680;SDS011;42558;52.388;13.390;2023-06-19T12:57:53;23.75;;;21.47;;
56680;SDS011;42558;52.388;13.390;2023-06-19T13:00:23;24.51;;;22.23;;
56680;SDS011;42558;52.388;13.390;2023-06-19T13:02:52;27.55;;;24.89;;
56680;SDS011;42558;52.388;13.390;2023-06-19T13:05:21;26.60;;;23.94;;
56680;SDS011;42558;52.388;13.390;2023-06-19T13:07:50;26.03;;;23.37;;
56680;SDS011;42558;52.388;13.390;2023-06-19T13:10:20;26.22;;;23.75;;
56680;SDS011;42558;52.388;13.390;2023-06-19T13:12:50;25.27;;;22.80;;
56680;SDS011;42558;52.388;13.390;2023-06-19T13:15:20;26.41;;;23.94;;
56680;SDS011;42558;52.388;13.390;2023-06-19T13:17:50;28.12;;;25.65;;
56680;SDS011;42558;52.388;13.390;2023-06-19T13:20:21;27.74;;;25.08;;
56680;SDS011;42558;52.388;13.390;2023-06-19T13:22:51;25.65;;;23.37;;
56680;SDS011;42558;52.388;13.390;2023-06-19T13:25:21;27.36;;;24.89;;
56680;SDS011;42558;52.388;13.390;2023-06-19T13:27:51;25.46;;;23.18;;
56680;SDS011;42558;52.388;13.390;2023-06-19T13:30:21;27.55;;;24.89;;
56680;SDS011;42558;52.388;13.390;2023-06-19T13:32:51;26.98;;;24.51;;
56680;SDS011;42558;52.388;13.390;2023-06-19T13:35:21;26.03;;;23.56;;
56680;SDS011;42558;52.388;13.390;2023-06-19T13:37:51;25.08;;;22.80;;
56680;SDS011;42558;52.388;13.390;2023-06-19T13:40:21;26.79;;;24.32;;
56680;SDS011;42558;52.388;13.390;2023-06-19T13:42:51;25.65;;;23.37;;
56680;SDS011;42558;52.388;13.390;2023-06-19T13:45:20;26.22;;;23.75;;
56680;SDS011;42558;52.388;13.390;2023-06-19T13:47:48;24.70;;;22.42;;
56680;SDS011;42558;52.388;13.390;2023-06-19T13:50:17;24.89;;;22.61;;
56680;SDS011;42558;52.388;13.390;2023-06-19T13:52:46;24.89;;;22.61;;
56680;SDS011;42558;52.388;13.390;2023-06-19T13:55:14;27.36;;;24.51;;
56680;SDS011;42558;52.388;13.390;2023-06-19T13:57:43;25.27;;;22.80;;
56680;SDS011;42558;52.388;13.390;2023-06-19T14:00:12;24.13;;;22.04;;
56680;SDS011;42558;52.388;13.390;2023-06-19T14:02:42;26.03;;;23.37;;
56680;SDS011;42558;52.388;13.390;2023-06-19T14:05:11;25.84;;;23.37;;
56680;SDS011;42558;52.388;13.390;2023-06-19T14:07:43;26.03;;;23.56;;
56680;SDS011;42558;52.388;13.390;2023-06-19T14:10:13;24.70;;;22.42;;
56680;SDS011;42558;52.388;13.390;2023-06-19T14:12:43;25.08;;;22.61;;
56680;SDS011;42558;52.388;13.390;2023-06-19T14:15:13;25.84;;;23.37;;
56680;SDS011;42558;52.388;13.390;2023-06-19T14:17:43;24.89;;;22.61;;
56680;SDS011;42558;52.388;13.390;2023-06-19T14:20:13;24.32;;;21.85;;
56680;SDS011;42558;52.388;13.390;2023-06-19T14:22:43;25.65;;;22.99;;
56680;SDS011;42558;52.388;13.390;2023-06-19T14:25:14;24.32;;;22.04;;
56680;SDS011;42558;52.388;13.390;2023-06-19T14:27:44;31.92;;;24.89;;
56680;SDS011;42558;52.388;13.390;2023-06-19T14:30:13;24.89;;;22.42;;
56680;SDS011;42558;52.388;13.390;2023-06-19T14:32:44;24.32;;;21.66;;
56680;SDS011;42558;52.388;13.390;2023-06-19T14:35:14;22.99;;;20.71;;
56680;SDS011;42558;52.388;13.390;2023-06-19T14:37:45;23.56;;;21.28;;